sensor_id;sensor_type;location;lat;lon;timestamp;pressure;altitude;pressure_sealevel;temperature;humidity
63088;BME280;49173;43.164;27.786;2023-02-28T00:00:52;101451.66;;;8.76;78.00
63088;BME280;49173;43.164;27.786;2023-02-28T00:03:17;101459.63;;;8.78;78.54
63088;BME280;49173;43.164;27.786;2023-02-28T00:05:43;101471.13;;;8.82;79.30
63088;BME280;49173;43.164;27.786;2023-02-28T00:08:09;101464.94;;;8.79;78.96
63088;BME280;49173;43.164;27.786;2023-02-28T00:10:35;101459.59;;;8.79;78.49
63088;BME280;49173;43.164;27.786;2023-02-28T00:13:06;101463.53;;;8.68;77.50
63088;BME280;49173;43.164;27.786;2023-02-28T00:15:32;101475.03;;;8.70;77.89
63088;BME280;49173;43.164;27.786;2023-02-28T00:17:58;101476.91;;;8.66;78.00
63088;BME280;49173;43.164;27.786;2023-02-28T00:20:24;101473.34;;;8.67;77.97
63088;BME280;49173;43.164;27.786;2023-02-28T00:22:53;101479.81;;;8.59;78.26
63088;BME280;49173;43.164;27.786;2023-02-28T00:25:22;101471.16;;;8.50;78.40
63088;BME280;49173;43.164;27.786;2023-02-28T00:27:49;101478.88;;;8.61;77.82
63088;BME280;49173;43.164;27.786;2023-02-28T00:30:20;101474.47;;;8.59;77.78
63088;BME280;49173;43.164;27.786;2023-02-28T00:32:47;101477.16;;;8.59;78.11
63088;BME280;49173;43.164;27.786;2023-02-28T00:35:13;101486.16;;;8.56;78.43
63088;BME280;49173;43.164;27.786;2023-02-28T00:37:39;101473.91;;;8.47;78.75
63088;BME280;49173;43.164;27.786;2023-02-28T00:40:06;101464.84;;;8.53;78.10
63088;BME280;49173;43.164;27.786;2023-02-28T00:42:34;101473.69;;;8.55;78.34
63088;BME280;49173;43.164;27.786;2023-02-28T00:45:00;101478.94;;;8.58;78.58
63088;BME280;49173;43.164;27.786;2023-02-28T00:47:26;101477.31;;;8.54;78.47
63088;BME280;49173;43.164;27.786;2023-02-28T00:49:52;101470.97;;;8.57;78.30
63088;BME280;49173;43.164;27.786;2023-02-28T00:52:18;101470.16;;;8.55;78.59
63088;BME280;49173;43.164;27.786;2023-02-28T00:54:43;101451.72;;;8.44;78.62
63088;BME280;49173;43.164;27.786;2023-02-28T00:57:09;101456.25;;;8.42;79.18
63088;BME280;49173;43.164;27.786;2023-02-28T00:59:35;101464.97;;;8.48;79.13
63088;BME280;49173;43.164;27.786;2023-02-28T01:02:01;101473.81;;;8.50;79.17
63088;BME280;49173;43.164;27.786;2023-02-28T01:04:26;101488.06;;;8.51;79.08
63088;BME280;49173;43.164;27.786;2023-02-28T01:06:52;101501.28;;;8.57;79.67
63088;BME280;49173;43.164;27.786;2023-02-28T01:09:19;101480.84;;;8.55;78.87
63088;BME280;49173;43.164;27.786;2023-02-28T01:11:45;101496.16;;;8.49;78.63
63088;BME280;49173;43.164;27.786;2023-02-28T01:14:13;101490.03;;;8.44;78.31
63088;BME280;49173;43.164;27.786;2023-02-28T01:16:39;101501.72;;;8.42;78.47
63088;BME280;49173;43.164;27.786;2023-02-28T01:19:05;101517.06;;;8.34;79.11
63088;BME280;49173;43.164;27.786;2023-02-28T01:21:30;101516.91;;;8.41;78.36
63088;BME280;49173;43.164;27.786;2023-02-28T01:23:57;101496.38;;;8.42;77.95
63088;BME280;49173;43.164;27.786;2023-02-28T01:26:23;101484.97;;;8.35;78.27
63088;BME280;49173;43.164;27.786;2023-02-28T01:28:50;101495.75;;;8.31;78.86
63088;BME280;49173;43.164;27.786;2023-02-28T01:31:17;101500.38;;;8.24;79.46
63088;BME280;49173;43.164;27.786;2023-02-28T01:33:44;101502.16;;;8.25;79.98
63088;BME280;49173;43.164;27.786;2023-02-28T01:36:15;101497.91;;;8.16;79.65
63088;BME280;49173;43.164;27.786;2023-02-28T01:38:42;101508.50;;;8.21;80.17
63088;BME280;49173;43.164;27.786;2023-02-28T01:41:20;101509.31;;;8.23;80.32
63088;BME280;49173;43.164;27.786;2023-02-28T01:46:13;101521.09;;;8.16;79.75
63088;BME280;49173;43.164;27.786;2023-02-28T01:49:12;101520.31;;;8.12;79.54
63088;BME280;49173;43.164;27.786;2023-02-28T01:51:43;101511.38;;;8.13;79.96
63088;BME280;49173;43.164;27.786;2023-02-28T01:54:19;101501.75;;;8.06;79.99
63088;BME280;49173;43.164;27.786;2023-02-28T01:56:58;101501.81;;;8.03;80.32
63088;BME280;49173;43.164;27.786;2023-02-28T01:59:41;101526.03;;;7.98;80.43
63088;BME280;49173;43.164;27.786;2023-02-28T02:02:12;101522.53;;;7.95;80.84
63088;BME280;49173;43.164;27.786;2023-02-28T02:05:24;101510.91;;;7.96;81.08
63088;BME280;49173;43.164;27.786;2023-02-28T02:07:34;101518.78;;;8.04;80.99
63088;BME280;49173;43.164;27.786;2023-02-28T02:15:26;101510.97;;;7.94;79.89
63088;BME280;49173;43.164;27.786;2023-02-28T02:18:27;101519.50;;;7.75;79.80
63088;BME280;49173;43.164;27.786;2023-02-28T02:27:05;101509.41;;;7.50;81.45
63088;BME280;49173;43.164;27.786;2023-02-28T02:35:54;101532.94;;;7.34;82.71
63088;BME280;49173;43.164;27.786;2023-02-28T02:41:31;101521.81;;;7.53;82.23
63088;BME280;49173;43.164;27.786;2023-02-28T02:44:48;101520.94;;;7.52;81.35
63088;BME280;49173;43.164;27.786;2023-02-28T02:47:18;101536.91;;;7.54;81.42
63088;BME280;49173;43.164;27.786;2023-02-28T02:49:52;101534.19;;;7.57;81.37
63088;BME280;49173;43.164;27.786;2023-02-28T02:52:25;101508.50;;;7.51;81.44
63088;BME280;49173;43.164;27.786;2023-02-28T02:54:56;101515.81;;;7.43;81.21
63088;BME280;49173;43.164;27.786;2023-02-28T02:57:31;101528.34;;;7.41;81.73
63088;BME280;49173;43.164;27.786;2023-02-28T02:59:58;101514.94;;;7.42;81.56
63088;BME280;49173;43.164;27.786;2023-02-28T03:02:27;101537.09;;;7.46;81.88
63088;BME280;49173;43.164;27.786;2023-02-28T03:05:02;101551.31;;;7.48;81.86
63088;BME280;49173;43.164;27.786;2023-02-28T03:07:30;101554.88;;;7.49;81.55
63088;BME280;49173;43.164;27.786;2023-02-28T03:09:57;101547.66;;;7.52;81.46
63088;BME280;49173;43.164;27.786;2023-02-28T03:12:28;101541.47;;;7.50;81.33
63088;BME280;49173;43.164;27.786;2023-02-28T03:17:54;101554.91;;;7.46;81.95
63088;BME280;49173;43.164;27.786;2023-02-28T03:20:55;101546.81;;;7.50;82.29
63088;BME280;49173;43.164;27.786;2023-02-28T03:24:18;101543.25;;;7.50;82.00
63088;BME280;49173;43.164;27.786;2023-02-28T03:26:22;101527.28;;;7.47;82.02
63088;BME280;49173;43.164;27.786;2023-02-28T03:31:25;101537.28;;;7.38;82.07
63088;BME280;49173;43.164;27.786;2023-02-28T03:34:04;101534.78;;;7.31;82.36
63088;BME280;49173;43.164;27.786;2023-02-28T03:36:37;101552.50;;;7.35;82.14
63088;BME280;49173;43.164;27.786;2023-02-28T03:39:20;101556.88;;;7.37;82.01
63088;BME280;49173;43.164;27.786;2023-02-28T03:42:01;101555.91;;;7.41;81.83
63088;BME280;49173;43.164;27.786;2023-02-28T03:44:32;101553.25;;;7.41;81.48
63088;BME280;49173;43.164;27.786;2023-02-28T03:47:16;101552.56;;;7.33;81.44
63088;BME280;49173;43.164;27.786;2023-02-28T03:52:17;101568.59;;;7.32;82.06
63088;BME280;49173;43.164;27.786;2023-02-28T03:54:49;101581.84;;;7.36;81.93
63088;BME280;49173;43.164;27.786;2023-02-28T03:57:40;101576.53;;;7.35;81.92
63088;BME280;49173;43.164;27.786;2023-02-28T04:00:17;101575.69;;;7.33;82.06
63088;BME280;49173;43.164;27.786;2023-02-28T04:02:44;101576.59;;;7.32;81.13
63088;BME280;49173;43.164;27.786;2023-02-28T04:05:10;101558.94;;;7.25;81.20
63088;BME280;49173;43.164;27.786;2023-02-28T04:07:37;101553.75;;;7.19;80.87
63088;BME280;49173;43.164;27.786;2023-02-28T04:10:03;101570.13;;;7.02;81.46
63088;BME280;49173;43.164;27.786;2023-02-28T04:12:29;101563.97;;;7.00;82.03
63088;BME280;49173;43.164;27.786;2023-02-28T04:14:55;101579.13;;;6.96;81.94
63088;BME280;49173;43.164;27.786;2023-02-28T04:17:20;101581.94;;;6.90;81.84
63088;BME280;49173;43.164;27.786;2023-02-28T04:19:46;101564.25;;;6.86;81.80
63088;BME280;49173;43.164;27.786;2023-02-28T04:22:12;101563.41;;;6.82;81.98
63088;BME280;49173;43.164;27.786;2023-02-28T04:24:38;101568.84;;;6.78;82.43
63088;BME280;49173;43.164;27.786;2023-02-28T04:27:07;101563.53;;;6.78;82.35
63088;BME280;49173;43.164;27.786;2023-02-28T04:29:34;101554.59;;;6.79;81.91
63088;BME280;49173;43.164;27.786;2023-02-28T04:32:00;101549.25;;;6.79;82.22
63088;BME280;49173;43.164;27.786;2023-02-28T04:34:30;101557.34;;;6.74;82.03
63088;BME280;49173;43.164;27.786;2023-02-28T04:36:57;101543.22;;;6.71;82.04
63088;BME280;49173;43.164;27.786;2023-02-28T04:39:24;101538.78;;;6.68;82.17
63088;BME280;49173;43.164;27.786;2023-02-28T04:41:50;101548.69;;;6.63;82.56
63088;BME280;49173;43.164;27.786;2023-02-28T04:44:17;101559.38;;;6.63;82.34
63088;BME280;49173;43.164;27.786;2023-02-28T04:46:43;101561.06;;;6.67;82.74
63088;BME280;49173;43.164;27.786;2023-02-28T04:49:12;101562.75;;;6.71;82.53
63088;BME280;49173;43.164;27.786;2023-02-28T04:51:39;101559.34;;;6.65;82.53
63088;BME280;49173;43.164;27.786;2023-02-28T04:54:06;101547.59;;;6.73;82.64
63088;BME280;49173;43.164;27.786;2023-02-28T04:56:32;101543.97;;;6.76;82.32
63088;BME280;49173;43.164;27.786;2023-02-28T04:58:58;101544.00;;;6.74;82.09
63088;BME280;49173;43.164;27.786;2023-02-28T05:01:29;101554.09;;;6.60;82.32
63088;BME280;49173;43.164;27.786;2023-02-28T05:03:59;101562.13;;;6.58;82.79
63088;BME280;49173;43.164;27.786;2023-02-28T05:06:28;101570.16;;;6.57;82.56
63088;BME280;49173;43.164;27.786;2023-02-28T05:08:54;101569.13;;;6.64;82.69
63088;BME280;49173;43.164;27.786;2023-02-28T05:11:32;101571.69;;;6.69;82.71
63088;BME280;49173;43.164;27.786;2023-02-28T05:14:03;101560.91;;;6.75;82.32
63088;BME280;49173;43.164;27.786;2023-02-28T05:16:32;101578.66;;;6.77;82.15
63088;BME280;49173;43.164;27.786;2023-02-28T05:18:59;101581.22;;;6.82;81.84
63088;BME280;49173;43.164;27.786;2023-02-28T05:21:32;101589.91;;;6.93;82.80
63088;BME280;49173;43.164;27.786;2023-02-28T05:24:02;101591.53;;;7.00;82.59
63088;BME280;49173;43.164;27.786;2023-02-28T05:26:30;101625.22;;;7.06;82.46
63088;BME280;49173;43.164;27.786;2023-02-28T05:28:57;101635.78;;;7.12;82.69
63088;BME280;49173;43.164;27.786;2023-02-28T05:31:24;101634.78;;;7.16;82.70
63088;BME280;49173;43.164;27.786;2023-02-28T05:33:52;101653.44;;;7.18;82.60
63088;BME280;49173;43.164;27.786;2023-02-28T05:36:19;101655.94;;;7.25;82.79
63088;BME280;49173;43.164;27.786;2023-02-28T05:39:02;101639.09;;;7.23;82.59
63088;BME280;49173;43.164;27.786;2023-02-28T05:41:30;101630.31;;;7.16;82.63
63088;BME280;49173;43.164;27.786;2023-02-28T05:43:57;101637.63;;;7.08;82.60
63088;BME280;49173;43.164;27.786;2023-02-28T05:46:26;101626.06;;;7.08;82.86
63088;BME280;49173;43.164;27.786;2023-02-28T05:48:52;101634.06;;;7.08;82.65
63088;BME280;49173;43.164;27.786;2023-02-28T05:51:23;101646.56;;;7.06;83.27
63088;BME280;49173;43.164;27.786;2023-02-28T05:53:52;101647.31;;;7.14;83.96
63088;BME280;49173;43.164;27.786;2023-02-28T05:56:18;101659.81;;;7.12;84.02
63088;BME280;49173;43.164;27.786;2023-02-28T05:58:45;101662.47;;;7.10;84.01
63088;BME280;49173;43.164;27.786;2023-02-28T06:03:49;101675.81;;;7.12;84.19
63088;BME280;49173;43.164;27.786;2023-02-28T06:06:17;101677.59;;;7.13;84.05
63088;BME280;49173;43.164;27.786;2023-02-28T06:08:45;101671.31;;;7.14;84.13
63088;BME280;49173;43.164;27.786;2023-02-28T06:11:17;101663.38;;;7.11;84.69
63088;BME280;49173;43.164;27.786;2023-02-28T06:13:47;101653.69;;;7.07;85.42
63088;BME280;49173;43.164;27.786;2023-02-28T06:16:17;101672.41;;;7.04;85.47
63088;BME280;49173;43.164;27.786;2023-02-28T06:18:44;101671.53;;;7.03;86.32
63088;BME280;49173;43.164;27.786;2023-02-28T06:21:12;101674.19;;;7.05;86.74
63088;BME280;49173;43.164;27.786;2023-02-28T06:23:40;101668.75;;;7.09;86.06
63088;BME280;49173;43.164;27.786;2023-02-28T06:26:07;101659.00;;;7.07;86.39
63088;BME280;49173;43.164;27.786;2023-02-28T06:28:34;101659.13;;;7.01;86.18
63088;BME280;49173;43.164;27.786;2023-02-28T06:31:06;101653.09;;;6.89;87.17
63088;BME280;49173;43.164;27.786;2023-02-28T06:33:35;101659.56;;;6.78;87.41
63088;BME280;49173;43.164;27.786;2023-02-28T06:36:02;101659.72;;;6.69;88.35
63088;BME280;49173;43.164;27.786;2023-02-28T06:38:29;101662.50;;;6.64;89.21
63088;BME280;49173;43.164;27.786;2023-02-28T06:40:59;101672.28;;;6.62;89.58
63088;BME280;49173;43.164;27.786;2023-02-28T06:43:29;101672.22;;;6.67;89.43
63088;BME280;49173;43.164;27.786;2023-02-28T06:45:58;101666.78;;;6.73;90.15
63088;BME280;49173;43.164;27.786;2023-02-28T06:48:27;101660.44;;;6.78;90.02
63088;BME280;49173;43.164;27.786;2023-02-28T06:51:11;101662.25;;;6.78;90.49
63088;BME280;49173;43.164;27.786;2023-02-28T06:53:38;101665.72;;;6.81;90.62
63088;BME280;49173;43.164;27.786;2023-02-28T06:56:11;101665.69;;;6.84;90.26
63088;BME280;49173;43.164;27.786;2023-02-28T06:58:38;101661.22;;;6.85;89.48
63088;BME280;49173;43.164;27.786;2023-02-28T07:01:07;101665.53;;;6.91;89.13
63088;BME280;49173;43.164;27.786;2023-02-28T07:03:38;101663.75;;;6.93;89.15
63088;BME280;49173;43.164;27.786;2023-02-28T07:06:05;101670.00;;;6.90;88.60
63088;BME280;49173;43.164;27.786;2023-02-28T07:08:34;101675.47;;;6.84;88.93
63088;BME280;49173;43.164;27.786;2023-02-28T07:11:03;101666.47;;;6.88;89.12
63088;BME280;49173;43.164;27.786;2023-02-28T07:13:30;101673.53;;;6.91;89.11
63088;BME280;49173;43.164;27.786;2023-02-28T07:16:02;101667.38;;;6.88;89.01
63088;BME280;49173;43.164;27.786;2023-02-28T07:18:30;101658.44;;;6.89;88.83
63088;BME280;49173;43.164;27.786;2023-02-28T07:20:56;101660.28;;;6.87;88.95
63088;BME280;49173;43.164;27.786;2023-02-28T07:23:24;101662.94;;;6.87;89.63
63088;BME280;49173;43.164;27.786;2023-02-28T07:25:50;101662.91;;;6.89;89.77
63088;BME280;49173;43.164;27.786;2023-02-28T07:28:17;101661.97;;;6.92;89.70
63088;BME280;49173;43.164;27.786;2023-02-28T07:30:44;101651.31;;;6.90;89.41
63088;BME280;49173;43.164;27.786;2023-02-28T07:33:11;101649.59;;;6.87;89.22
63088;BME280;49173;43.164;27.786;2023-02-28T07:35:38;101653.25;;;6.82;89.29
63088;BME280;49173;43.164;27.786;2023-02-28T07:38:06;101656.00;;;6.79;90.07
63088;BME280;49173;43.164;27.786;2023-02-28T07:40:35;101654.84;;;6.91;90.23
63088;BME280;49173;43.164;27.786;2023-02-28T07:43:04;101639.59;;;6.99;89.98
63088;BME280;49173;43.164;27.786;2023-02-28T07:45:34;101658.09;;;7.08;89.67
63088;BME280;49173;43.164;27.786;2023-02-28T07:48:10;101651.75;;;7.13;89.34
63088;BME280;49173;43.164;27.786;2023-02-28T07:50:38;101640.97;;;7.20;89.31
63088;BME280;49173;43.164;27.786;2023-02-28T07:53:07;101648.97;;;7.18;89.26
63088;BME280;49173;43.164;27.786;2023-02-28T07:55:34;101658.81;;;7.16;88.87
63088;BME280;49173;43.164;27.786;2023-02-28T07:58:02;101663.50;;;7.05;86.94
63088;BME280;49173;43.164;27.786;2023-02-28T08:00:31;101675.16;;;7.01;87.52
63088;BME280;49173;43.164;27.786;2023-02-28T08:02:57;101679.69;;;6.96;87.47
63088;BME280;49173;43.164;27.786;2023-02-28T08:05:25;101698.41;;;6.94;88.09
63088;BME280;49173;43.164;27.786;2023-02-28T08:07:54;101693.09;;;6.93;87.79
63088;BME280;49173;43.164;27.786;2023-02-28T08:10:23;101694.84;;;6.94;87.70
63088;BME280;49173;43.164;27.786;2023-02-28T08:12:51;101691.34;;;6.92;88.10
63088;BME280;49173;43.164;27.786;2023-02-28T08:15:17;101687.09;;;6.80;87.71
63088;BME280;49173;43.164;27.786;2023-02-28T08:17:43;101693.44;;;6.73;88.88
63088;BME280;49173;43.164;27.786;2023-02-28T08:20:10;101688.22;;;6.67;88.81
63088;BME280;49173;43.164;27.786;2023-02-28T08:22:36;101689.97;;;6.68;89.24
63088;BME280;49173;43.164;27.786;2023-02-28T08:25:03;101691.88;;;6.63;89.38
63088;BME280;49173;43.164;27.786;2023-02-28T08:27:29;101692.78;;;6.60;89.52
63088;BME280;49173;43.164;27.786;2023-02-28T08:29:56;101694.63;;;6.56;89.42
63088;BME280;49173;43.164;27.786;2023-02-28T08:32:23;101690.22;;;6.55;89.19
63088;BME280;49173;43.164;27.786;2023-02-28T08:34:50;101697.31;;;6.55;89.69
63088;BME280;49173;43.164;27.786;2023-02-28T08:37:18;101702.72;;;6.52;89.18
63088;BME280;49173;43.164;27.786;2023-02-28T08:39:46;101693.84;;;6.50;89.34
63088;BME280;49173;43.164;27.786;2023-02-28T08:42:13;101689.41;;;6.50;90.27
63088;BME280;49173;43.164;27.786;2023-02-28T08:44:46;101697.47;;;6.46;90.03
63088;BME280;49173;43.164;27.786;2023-02-28T08:47:14;101700.91;;;6.52;90.01
63088;BME280;49173;43.164;27.786;2023-02-28T08:49:42;101692.00;;;6.53;89.89
63088;BME280;49173;43.164;27.786;2023-02-28T08:52:08;101693.00;;;6.46;89.62
63088;BME280;49173;43.164;27.786;2023-02-28T08:54:37;101690.47;;;6.39;90.01
63088;BME280;49173;43.164;27.786;2023-02-28T08:57:04;101707.34;;;6.39;90.39
63088;BME280;49173;43.164;27.786;2023-02-28T08:59:33;101698.53;;;6.36;90.15
63088;BME280;49173;43.164;27.786;2023-02-28T09:02:00;101704.72;;;6.38;91.18
63088;BME280;49173;43.164;27.786;2023-02-28T09:04:29;101686.03;;;6.39;91.54
63088;BME280;49173;43.164;27.786;2023-02-28T09:06:59;101690.31;;;6.48;91.78
63088;BME280;49173;43.164;27.786;2023-02-28T09:09:26;101691.09;;;6.56;91.79
63088;BME280;49173;43.164;27.786;2023-02-28T09:11:56;101694.53;;;6.61;91.19
63088;BME280;49173;43.164;27.786;2023-02-28T09:14:26;101694.44;;;6.67;90.69
63088;BME280;49173;43.164;27.786;2023-02-28T09:16:57;101694.41;;;6.69;89.58
63088;BME280;49173;43.164;27.786;2023-02-28T09:19:26;101697.16;;;6.64;88.67
63088;BME280;49173;43.164;27.786;2023-02-28T09:21:52;101701.69;;;6.59;88.47
63088;BME280;49173;43.164;27.786;2023-02-28T09:24:21;101698.28;;;6.51;88.87
63088;BME280;49173;43.164;27.786;2023-02-28T09:26:51;101696.53;;;6.50;89.02
63088;BME280;49173;43.164;27.786;2023-02-28T09:29:18;101705.28;;;6.58;89.08
63088;BME280;49173;43.164;27.786;2023-02-28T09:31:44;101704.19;;;6.68;89.44
63088;BME280;49173;43.164;27.786;2023-02-28T09:34:11;101708.59;;;6.72;88.70
63088;BME280;49173;43.164;27.786;2023-02-28T09:36:37;101705.03;;;6.72;88.73
63088;BME280;49173;43.164;27.786;2023-02-28T09:39:06;101706.72;;;6.77;89.08
63088;BME280;49173;43.164;27.786;2023-02-28T09:41:41;101707.63;;;6.75;88.92
63088;BME280;49173;43.164;27.786;2023-02-28T09:44:37;101711.97;;;6.82;88.37
63088;BME280;49173;43.164;27.786;2023-02-28T09:49:53;101712.69;;;6.92;88.58
63088;BME280;49173;43.164;27.786;2023-02-28T09:52:24;101712.66;;;6.93;88.48
63088;BME280;49173;43.164;27.786;2023-02-28T09:54:53;101720.72;;;6.88;87.32
63088;BME280;49173;43.164;27.786;2023-02-28T09:57:33;101718.13;;;6.85;87.54
63088;BME280;49173;43.164;27.786;2023-02-28T10:05:26;101725.53;;;6.70;87.51
63088;BME280;49173;43.164;27.786;2023-02-28T10:10:51;101729.22;;;6.63;87.65
63088;BME280;49173;43.164;27.786;2023-02-28T10:14:10;101715.97;;;6.55;86.42
63088;BME280;49173;43.164;27.786;2023-02-28T10:16:15;101712.38;;;6.59;86.72
63088;BME280;49173;43.164;27.786;2023-02-28T10:18:51;101708.88;;;6.54;87.00
63088;BME280;49173;43.164;27.786;2023-02-28T10:21:28;101698.31;;;6.48;87.41
63088;BME280;49173;43.164;27.786;2023-02-28T10:29:51;101699.22;;;6.47;86.49
63088;BME280;49173;43.164;27.786;2023-02-28T10:32:20;101687.00;;;6.33;86.90
63088;BME280;49173;43.164;27.786;2023-02-28T10:34:52;101686.22;;;6.28;87.38
63088;BME280;49173;43.164;27.786;2023-02-28T10:37:21;101677.34;;;6.26;88.11
63088;BME280;49173;43.164;27.786;2023-02-28T10:39:47;101676.44;;;6.29;88.18
63088;BME280;49173;43.164;27.786;2023-02-28T10:42:25;101680.00;;;6.26;88.49
63088;BME280;49173;43.164;27.786;2023-02-28T10:45:19;101671.97;;;6.29;88.73
63088;BME280;49173;43.164;27.786;2023-02-28T10:48:04;101666.66;;;6.29;88.53
63088;BME280;49173;43.164;27.786;2023-02-28T10:56:05;101664.63;;;6.44;89.14
63088;BME280;49173;43.164;27.786;2023-02-28T11:01:43;101656.38;;;6.57;89.74
63088;BME280;49173;43.164;27.786;2023-02-28T11:06:42;101654.59;;;6.58;88.05
63088;BME280;49173;43.164;27.786;2023-02-28T11:09:29;101650.97;;;6.60;88.21
63088;BME280;49173;43.164;27.786;2023-02-28T11:11:56;101646.41;;;6.67;89.10
63088;BME280;49173;43.164;27.786;2023-02-28T11:14:26;101649.94;;;6.69;88.04
63088;BME280;49173;43.164;27.786;2023-02-28T11:16:53;101651.72;;;6.70;88.19
63088;BME280;49173;43.164;27.786;2023-02-28T11:19:28;101650.81;;;6.71;88.06
63088;BME280;49173;43.164;27.786;2023-02-28T11:22:01;101649.00;;;6.72;88.62
63088;BME280;49173;43.164;27.786;2023-02-28T11:24:33;101636.41;;;6.80;88.53
63088;BME280;49173;43.164;27.786;2023-02-28T11:27:01;101632.81;;;6.81;87.62
63088;BME280;49173;43.164;27.786;2023-02-28T11:29:29;101631.09;;;6.78;87.46
63088;BME280;49173;43.164;27.786;2023-02-28T11:34:39;101635.44;;;6.84;87.53
63088;BME280;49173;43.164;27.786;2023-02-28T11:37:12;101628.31;;;6.84;87.63
63088;BME280;49173;43.164;27.786;2023-02-28T11:39:39;101635.41;;;6.85;87.94
63088;BME280;49173;43.164;27.786;2023-02-28T11:42:38;101616.81;;;6.81;88.16
63088;BME280;49173;43.164;27.786;2023-02-28T11:55:43;101607.59;;;6.51;87.97
63088;BME280;49173;43.164;27.786;2023-02-28T12:01:19;101604.81;;;6.57;89.05
63088;BME280;49173;43.164;27.786;2023-02-28T12:04:10;101595.19;;;6.50;88.11
63088;BME280;49173;43.164;27.786;2023-02-28T12:12:21;101608.25;;;6.64;89.76
63088;BME280;49173;43.164;27.786;2023-02-28T12:14:57;101605.38;;;6.74;88.68
63088;BME280;49173;43.164;27.786;2023-02-28T12:17:38;101615.13;;;6.77;88.19
63088;BME280;49173;43.164;27.786;2023-02-28T12:22:50;101625.03;;;6.70;87.41
63088;BME280;49173;43.164;27.786;2023-02-28T12:28:15;101625.03;;;6.69;87.66
63088;BME280;49173;43.164;27.786;2023-02-28T12:33:22;101631.47;;;6.58;88.20
63088;BME280;49173;43.164;27.786;2023-02-28T12:35:55;101625.16;;;6.64;88.50
63088;BME280;49173;43.164;27.786;2023-02-28T12:38:25;101625.03;;;6.70;87.87
63088;BME280;49173;43.164;27.786;2023-02-28T12:41:02;101607.13;;;6.75;87.27
63088;BME280;49173;43.164;27.786;2023-02-28T12:43:37;101607.84;;;6.83;87.00
63088;BME280;49173;43.164;27.786;2023-02-28T12:46:11;101601.91;;;6.69;86.32
63088;BME280;49173;43.164;27.786;2023-02-28T12:49:12;101603.88;;;6.59;86.13
63088;BME280;49173;43.164;27.786;2023-02-28T12:51:30;101605.59;;;6.62;86.64
63088;BME280;49173;43.164;27.786;2023-02-28T13:05:28;101612.75;;;6.60;85.98
63088;BME280;49173;43.164;27.786;2023-02-28T13:10:22;101611.28;;;6.44;86.69
63088;BME280;49173;43.164;27.786;2023-02-28T13:12:50;101611.19;;;6.50;87.32
63088;BME280;49173;43.164;27.786;2023-02-28T13:15:22;101628.88;;;6.54;87.16
63088;BME280;49173;43.164;27.786;2023-02-28T13:17:54;101625.44;;;6.47;86.33
63088;BME280;49173;43.164;27.786;2023-02-28T13:20:24;101621.09;;;6.43;87.12
63088;BME280;49173;43.164;27.786;2023-02-28T13:22:51;101620.22;;;6.43;87.92
63088;BME280;49173;43.164;27.786;2023-02-28T13:28:09;101621.88;;;6.47;86.96
63088;BME280;49173;43.164;27.786;2023-02-28T13:33:29;101628.16;;;6.44;86.78
63088;BME280;49173;43.164;27.786;2023-02-28T13:38:43;101623.81;;;6.39;87.23
63088;BME280;49173;43.164;27.786;2023-02-28T13:44:21;101612.34;;;6.35;87.53
63088;BME280;49173;43.164;27.786;2023-02-28T13:49:29;101607.88;;;6.36;87.85
63088;BME280;49173;43.164;27.786;2023-02-28T13:57:40;101592.09;;;6.23;87.83
63088;BME280;49173;43.164;27.786;2023-02-28T14:06:09;101595.91;;;6.09;88.76
63088;BME280;49173;43.164;27.786;2023-02-28T14:08:59;101598.59;;;6.07;88.54
63088;BME280;49173;43.164;27.786;2023-02-28T14:11:35;101602.16;;;6.08;89.21
63088;BME280;49173;43.164;27.786;2023-02-28T14:14:03;101600.19;;;6.17;89.01
63088;BME280;49173;43.164;27.786;2023-02-28T14:16:47;101598.34;;;6.22;88.25
63088;BME280;49173;43.164;27.786;2023-02-28T14:19:21;101598.44;;;6.16;88.41
63088;BME280;49173;43.164;27.786;2023-02-28T14:27:29;101601.78;;;6.29;87.64
63088;BME280;49173;43.164;27.786;2023-02-28T14:36:18;101600.31;;;6.10;88.06
63088;BME280;49173;43.164;27.786;2023-02-28T14:38:49;101603.91;;;6.09;88.06
63088;BME280;49173;43.164;27.786;2023-02-28T14:41:31;101609.19;;;6.10;88.30
63088;BME280;49173;43.164;27.786;2023-02-28T14:43:59;101608.38;;;6.05;87.95
63088;BME280;49173;43.164;27.786;2023-02-28T14:46:37;101611.22;;;5.96;88.23
63088;BME280;49173;43.164;27.786;2023-02-28T14:49:06;101607.59;;;5.98;87.92
63088;BME280;49173;43.164;27.786;2023-02-28T14:51:35;101611.22;;;5.96;87.84
63088;BME280;49173;43.164;27.786;2023-02-28T14:54:03;101612.94;;;5.98;87.93
63088;BME280;49173;43.164;27.786;2023-02-28T14:56:39;101616.50;;;5.97;88.22
63088;BME280;49173;43.164;27.786;2023-02-28T14:59:25;101620.94;;;5.98;88.42
63088;BME280;49173;43.164;27.786;2023-02-28T15:01:52;101616.53;;;5.96;87.76
63088;BME280;49173;43.164;27.786;2023-02-28T15:04:26;101606.81;;;5.93;87.86
63088;BME280;49173;43.164;27.786;2023-02-28T15:07:14;101607.72;;;5.91;87.97
63088;BME280;49173;43.164;27.786;2023-02-28T15:09:40;101613.00;;;5.95;88.16
63088;BME280;49173;43.164;27.786;2023-02-28T15:12:07;101609.47;;;5.95;87.74
63088;BME280;49173;43.164;27.786;2023-02-28T15:14:43;101609.50;;;5.93;88.20
63088;BME280;49173;43.164;27.786;2023-02-28T15:17:16;101603.22;;;5.96;88.24
63088;BME280;49173;43.164;27.786;2023-02-28T15:19:48;101610.28;;;5.98;88.36
63088;BME280;49173;43.164;27.786;2023-02-28T15:22:19;101606.63;;;6.04;87.61
63088;BME280;49173;43.164;27.786;2023-02-28T15:24:51;101611.06;;;6.05;87.81
63088;BME280;49173;43.164;27.786;2023-02-28T15:27:29;101604.81;;;6.06;87.69
63088;BME280;49173;43.164;27.786;2023-02-28T15:30:00;101605.63;;;6.11;87.40
63088;BME280;49173;43.164;27.786;2023-02-28T15:32:36;101611.03;;;6.08;87.15